This is the latest recevied weather packets stored in our database for station/object KI5KMR-13. If no packets are shown the sender has not sent any weather packets the latest 10 day(s).
| Time | Temp. | Humidity | Pressure | Rain* | Wind** | Luminosity | Snow |
|---|---|---|---|---|---|---|---|
| 1778345416 | 28.33° C | 73% | 1009.5 hPa | 0 mm | - | - | - |
| 1778337036 | 25° C | 89% | 1008.9 hPa | 0 mm | - | - | - |
| 1778335816 | 23.89° C | 92% | 1008.3 hPa | 0 mm | - | - | - |
| 1778334617 | 22.78° C | 96% | 1008.2 hPa | 0 mm | - | - | - |
| 1778334016 | 22.78° C | 97% | 1008.3 hPa | 0 mm | - | - | - |
| 1778327417 | 21.67° C | 96% | 1009.1 hPa | 0 mm | - | - | - |
| 1778241916 | 16.11° C | 81% | 1011.3 hPa | 0 mm | - | - | - |
| 1778157316 | 13.89° C | 86% | 1015 hPa | - | - | - | - |
| 1778156716 | 13.89° C | 86% | 1014.8 hPa | 0 mm | - | - | - |
| 1778138416 | 15° C | 82% | 1012.2 hPa | - | - | - | - |
| 1778137816 | 15° C | 82% | 1012.3 hPa | 0 mm | - | - | - |
| 1778136616 | 15.56° C | 81% | 1012.6 hPa | 0 mm | - | - | - |
| 1778135416 | 15.56° C | 80% | 1012.1 hPa | 0 mm | - | - | - |
| 1778131216 | 16.11° C | 80% | 1012.3 hPa | 0 mm | - | - | - |
| 1778128816 | 16.11° C | 80% | 1012.4 hPa | 0 mm | - | - | - |
| 1778125216 | 16.11° C | 81% | 1012.2 hPa | 0 mm | - | - | - |
| 1778122817 | 16.11° C | 81% | 1012.1 hPa | 0 mm | - | - | - |
| 1777933217 | 28.89° C | 57% | 1007.2 hPa | - | - | - | - |
| 1777836617 | 27.78° C | 38% | 1017.4 hPa | 0 mm | - | - | - |
| 1777749617 | 24.44° C | 50% | 1018.3 hPa | 0 mm | - | - | - |
| 1777747235 | 23.33° C | 51% | 1018.4 hPa | 0 mm | - | - | - |
| 1777675837 | 12.78° C | 96% | 1010.9 hPa | 1.02 mm | - | - | - |
| 1777673417 | 13.33° C | 96% | 1010.5 hPa | 2.29 mm | - | - | - |
| 1777672216 | 12.78° C | 96% | 1010.3 hPa | 1.27 mm | - | - | - |
| 1777665616 | 14.44° C | 96% | 1008.4 hPa | 1.52 mm | - | - | - |
* Rain latest hour (hover to see other rain measurements)
** Current wind speed in m/s (hover to see current wind gust speed)